Gruver, Iowa
Current Conditions -  °F | °C
As of 1:52 AM on Monday 24 Nov 2014 (Local Time) from KEST Reporting Station
Overcast Overcast  
Wind Chill:   Ceiling: 1100
Heat Index: 24°   Visibility: 10mi
Dew Point: 21°   Wind: 25mph
Humidity: 88%   Direction: 320°NW
Pressure: 29.41"   Gusts: 36mph
Location:  43.39°N, 94.71°W
Report Text: KEST 240752Z AUTO 32022G31KT 10SM OVC011 M04/M06 A2941 RMK AO2 PK WND 32035/0714 SLP969 T10441061
Loading
Personal Weather Stations






























Interactive Weather Map New forecast layout! Learn more

10-Day Weather Forecast

Advertisements
Track Severe Weather on mobile